createdAt,value
2019-03-27T00:02:23.778Z,6.97
2019-03-27T00:04:53.667Z,9.40
2019-03-27T00:07:23.479Z,8.40
2019-03-27T00:09:53.322Z,9.00
2019-03-27T00:12:23.168Z,7.80
2019-03-27T00:14:53.122Z,9.13
2019-03-27T00:17:22.949Z,8.60
2019-03-27T00:19:52.803Z,9.00
2019-03-27T00:22:22.634Z,9.03
2019-03-27T00:24:52.471Z,8.10
2019-03-27T00:27:22.287Z,7.93
2019-03-27T00:29:52.110Z,7.70
2019-03-27T00:32:21.933Z,8.63
2019-03-27T00:34:51.765Z,8.10
2019-03-27T00:37:21.597Z,8.80
2019-03-27T00:39:51.446Z,8.23
2019-03-27T00:42:21.270Z,7.50
2019-03-27T00:44:51.136Z,7.80
2019-03-27T00:47:20.999Z,8.20
2019-03-27T00:49:50.841Z,7.93
2019-03-27T00:52:20.733Z,7.60
2019-03-27T00:54:50.571Z,7.50
2019-03-27T00:57:20.399Z,7.80
2019-03-27T00:59:50.228Z,9.33
2019-03-27T01:02:20.095Z,8.87
2019-03-27T01:04:49.958Z,9.57
2019-03-27T01:07:20.033Z,9.80
2019-03-27T01:10:08.654Z,9.13
2019-03-27T01:12:57.258Z,10.57
2019-03-27T01:15:39.216Z,9.10
2019-03-27T01:17:58.683Z,10.77
2019-03-27T01:20:28.545Z,9.87
2019-03-27T01:22:58.375Z,10.17
2019-03-27T01:25:28.267Z,10.83
2019-03-27T01:27:58.186Z,11.40
2019-03-27T01:30:28.007Z,9.60
2019-03-27T01:32:57.861Z,10.80
2019-03-27T01:35:27.709Z,10.93
2019-03-27T01:37:57.559Z,11.30
2019-03-27T01:40:27.407Z,11.53
2019-03-27T01:42:57.243Z,12.10
2019-03-27T01:45:27.121Z,11.20
2019-03-27T01:47:56.967Z,10.90
2019-03-27T01:50:26.812Z,12.10
2019-03-27T01:52:56.644Z,11.80
2019-03-27T01:55:26.544Z,12.37
2019-03-27T01:57:56.531Z,10.60
2019-03-27T02:00:26.388Z,11.57
2019-03-27T02:02:56.298Z,12.70
2019-03-27T02:05:26.130Z,12.63
2019-03-27T02:08:14.701Z,14.10
2019-03-27T02:10:44.496Z,13.13
2019-03-27T02:13:14.250Z,12.83
2019-03-27T02:15:44.063Z,13.17
2019-03-27T02:18:13.818Z,15.33
2019-03-27T02:20:43.895Z,15.20
2019-03-27T02:23:13.678Z,14.93
2019-03-27T02:25:43.455Z,12.83
2019-03-27T02:28:13.252Z,13.03
2019-03-27T02:30:43.033Z,16.23
2019-03-27T02:33:12.741Z,14.40
2019-03-27T02:35:42.539Z,14.17
2019-03-27T02:38:12.299Z,13.60
2019-03-27T02:40:42.082Z,14.47
2019-03-27T02:43:11.881Z,14.03
2019-03-27T02:45:41.628Z,14.00
2019-03-27T02:48:13.984Z,13.50
2019-03-27T02:50:42.974Z,14.90
2019-03-27T02:53:12.725Z,14.63
2019-03-27T02:55:42.531Z,14.93
2019-03-27T02:58:12.301Z,14.97
2019-03-27T03:00:42.115Z,14.07
2019-03-27T03:03:30.662Z,14.07
2019-03-27T03:06:00.435Z,14.87
2019-03-27T03:08:30.194Z,14.33
2019-03-27T03:10:59.903Z,15.27
2019-03-27T03:13:29.674Z,15.33
2019-03-27T03:15:59.469Z,14.70
2019-03-27T03:18:29.334Z,14.30
2019-03-27T03:20:59.032Z,15.40
2019-03-27T03:23:28.807Z,15.67
2019-03-27T03:25:58.502Z,15.97
2019-03-27T03:28:28.282Z,14.30
2019-03-27T03:30:58.041Z,14.57
2019-03-27T03:33:27.745Z,15.03
2019-03-27T03:35:57.506Z,17.10
2019-03-27T03:38:27.230Z,17.33
2019-03-27T03:40:57.017Z,16.00
2019-03-27T03:43:26.796Z,17.53
2019-03-27T03:45:56.664Z,15.40
2019-03-27T03:48:26.378Z,17.30
2019-03-27T03:50:59.639Z,14.90
2019-03-27T03:53:31.520Z,15.03
2019-03-27T03:56:02.193Z,16.57
2019-03-27T03:58:33.450Z,17.50
2019-03-27T04:01:03.870Z,15.97
2019-03-27T04:03:35.880Z,17.20
2019-03-27T04:06:05.784Z,18.90
2019-03-27T04:08:35.464Z,15.80
2019-03-27T04:11:05.157Z,17.40
2019-03-27T04:13:34.953Z,18.00
2019-03-27T04:16:04.679Z,16.10
2019-03-27T04:18:34.509Z,15.10
2019-03-27T04:21:04.326Z,17.83
2019-03-27T04:23:34.105Z,17.50
2019-03-27T04:26:10.064Z,16.73
2019-03-27T04:28:35.436Z,17.63
2019-03-27T04:31:05.346Z,15.90
2019-03-27T04:33:35.126Z,16.90
2019-03-27T04:36:04.833Z,16.90
2019-03-27T04:38:34.605Z,18.57
2019-03-27T04:41:04.411Z,17.60
2019-03-27T04:43:34.172Z,16.70
2019-03-27T04:46:03.943Z,17.37
2019-03-27T04:48:33.641Z,17.37
2019-03-27T04:51:03.428Z,17.17
2019-03-27T04:53:33.189Z,17.43
2019-03-27T04:56:03.033Z,17.30
2019-03-27T04:58:32.882Z,16.13
2019-03-27T05:01:02.669Z,17.10
2019-03-27T05:03:32.460Z,17.27
2019-03-27T05:06:02.187Z,17.97
2019-03-27T05:08:31.982Z,21.00
2019-03-27T05:11:01.773Z,21.10
2019-03-27T05:13:31.517Z,16.43
2019-03-27T05:16:01.386Z,18.87
2019-03-27T05:18:31.101Z,18.20
2019-03-27T05:21:00.866Z,17.70
2019-03-27T05:23:30.646Z,15.33
2019-03-27T05:26:00.459Z,17.33
2019-03-27T05:28:30.160Z,18.83
2019-03-27T05:30:59.888Z,16.90
2019-03-27T05:33:32.588Z,16.73
2019-03-27T05:36:01.034Z,17.83
2019-03-27T05:38:30.746Z,17.60
2019-03-27T05:41:01.538Z,16.40
2019-03-27T05:43:31.253Z,17.90
2019-03-27T05:46:01.047Z,19.00
2019-03-27T05:48:30.850Z,16.60
2019-03-27T05:51:00.591Z,16.80
2019-03-27T05:53:30.381Z,18.37
2019-03-27T05:56:00.167Z,17.53
2019-03-27T05:58:29.968Z,17.00
2019-03-27T06:00:59.770Z,17.83
2019-03-27T06:03:29.561Z,16.80
2019-03-27T06:05:59.270Z,15.93
2019-03-27T06:08:28.998Z,17.73
2019-03-27T06:10:58.798Z,17.67
2019-03-27T06:13:28.595Z,18.40
2019-03-27T06:15:58.383Z,17.30
2019-03-27T06:18:28.186Z,18.03
2019-03-27T06:20:57.963Z,17.80
2019-03-27T06:23:28.097Z,19.13
2019-03-27T06:25:57.865Z,18.13
2019-03-27T06:28:27.673Z,18.10
2019-03-27T06:30:57.361Z,17.50
2019-03-27T06:33:27.146Z,18.70
2019-03-27T06:35:56.933Z,16.70
2019-03-27T06:38:26.730Z,17.17
2019-03-27T06:40:56.427Z,19.43
2019-03-27T06:43:26.569Z,16.90
2019-03-27T06:45:58.404Z,17.40
2019-03-27T06:48:27.774Z,16.53
2019-03-27T06:50:57.558Z,15.63
2019-03-27T06:53:27.435Z,18.07
2019-03-27T06:55:57.205Z,16.00
2019-03-27T06:58:27.003Z,16.67
2019-03-27T07:00:56.785Z,15.47
2019-03-27T07:03:26.562Z,15.77
2019-03-27T07:05:56.298Z,16.67
2019-03-27T07:08:25.998Z,15.03
2019-03-27T07:10:55.709Z,15.87
2019-03-27T07:13:25.477Z,19.50
2019-03-27T07:15:55.237Z,14.70
2019-03-27T07:18:25.033Z,14.87
2019-03-27T07:20:54.792Z,17.57
2019-03-27T07:23:24.654Z,16.30
2019-03-27T07:25:54.430Z,15.17
2019-03-27T07:28:24.155Z,16.47
2019-03-27T07:30:53.944Z,15.90
2019-03-27T07:33:23.672Z,16.10
2019-03-27T07:35:53.493Z,16.73
2019-03-27T07:38:23.272Z,17.40
2019-03-27T07:40:53.038Z,18.37
2019-03-27T07:43:22.845Z,18.57
2019-03-27T07:45:52.552Z,17.23
2019-03-27T07:48:22.342Z,15.50
2019-03-27T07:50:52.150Z,17.43
2019-03-27T07:53:22.579Z,17.00
2019-03-27T07:55:52.544Z,15.90
2019-03-27T07:58:22.238Z,18.50
2019-03-27T08:00:52.023Z,16.83
2019-03-27T08:03:21.755Z,16.10
2019-03-27T08:05:51.542Z,16.37
2019-03-27T08:08:21.334Z,16.43
2019-03-27T08:10:51.145Z,18.33
2019-03-27T08:13:20.935Z,14.47
2019-03-27T08:15:50.706Z,15.77
2019-03-27T08:18:20.521Z,15.30
2019-03-27T08:20:50.295Z,14.70
2019-03-27T08:23:20.085Z,16.03
2019-03-27T08:25:49.880Z,16.90
2019-03-27T08:28:19.701Z,17.33
2019-03-27T08:30:49.388Z,14.90
2019-03-27T08:33:19.197Z,15.53
2019-03-27T08:35:48.974Z,15.47
2019-03-27T08:38:18.786Z,14.40
2019-03-27T08:40:48.490Z,15.97
2019-03-27T08:43:21.439Z,16.30
2019-03-27T08:45:49.697Z,17.97
2019-03-27T08:48:19.423Z,16.30
2019-03-27T08:50:49.193Z,14.57
2019-03-27T08:53:18.992Z,15.10
2019-03-27T08:55:48.817Z,16.10
2019-03-27T08:58:18.622Z,14.53
2019-03-27T09:00:52.999Z,16.13
2019-03-27T09:03:22.790Z,15.07
2019-03-27T09:05:52.524Z,16.93
2019-03-27T09:08:22.301Z,16.33
2019-03-27T09:10:52.079Z,16.43
2019-03-27T09:13:21.818Z,16.93
2019-03-27T09:15:51.521Z,15.70
2019-03-27T09:18:21.336Z,16.47
2019-03-27T09:20:51.119Z,14.47
2019-03-27T09:23:20.934Z,16.17
2019-03-27T09:25:50.697Z,17.63
2019-03-27T09:28:20.514Z,15.33
2019-03-27T09:30:50.292Z,14.27
2019-03-27T09:33:20.088Z,14.80
2019-03-27T09:35:49.866Z,15.10
2019-03-27T09:38:19.704Z,11.00
2019-03-27T09:40:49.493Z,10.57
2019-03-27T09:43:19.278Z,10.57
2019-03-27T09:45:49.078Z,10.67
2019-03-27T09:48:18.862Z,9.10
2019-03-27T09:50:48.755Z,10.20
2019-03-27T09:53:18.574Z,9.43
2019-03-27T09:55:48.273Z,9.93
2019-03-27T09:58:18.072Z,9.60
2019-03-27T10:01:09.433Z,9.33
2019-03-27T10:03:39.277Z,8.07
2019-03-27T10:06:09.085Z,7.70
2019-03-27T10:08:38.897Z,7.03
2019-03-27T10:11:08.685Z,7.30
2019-03-27T10:13:38.469Z,9.23
2019-03-27T10:16:08.352Z,9.00
2019-03-27T10:18:38.074Z,10.73
2019-03-27T10:21:07.882Z,11.10
2019-03-27T10:23:37.670Z,10.70
2019-03-27T10:26:07.505Z,11.47
2019-03-27T10:28:37.306Z,8.40
2019-03-27T10:31:07.080Z,9.23
2019-03-27T10:33:36.834Z,9.23
2019-03-27T10:36:06.627Z,10.70
2019-03-27T10:38:36.466Z,10.13
2019-03-27T10:41:06.337Z,11.10
2019-03-27T10:43:36.159Z,8.93
2019-03-27T10:46:05.947Z,9.23
2019-03-27T10:48:35.722Z,9.70
2019-03-27T10:51:05.513Z,9.20
2019-03-27T10:53:35.332Z,9.43
2019-03-27T10:56:05.126Z,9.80
2019-03-27T10:58:34.960Z,10.13
2019-03-27T11:01:07.212Z,9.03
2019-03-27T11:03:36.190Z,8.97
2019-03-27T11:06:05.987Z,9.70
2019-03-27T11:08:35.791Z,8.53
2019-03-27T11:11:05.599Z,9.13
2019-03-27T11:13:35.414Z,9.33
2019-03-27T11:16:05.198Z,8.87
2019-03-27T11:18:34.930Z,7.60
2019-03-27T11:21:04.651Z,10.20
2019-03-27T11:23:34.425Z,9.77
2019-03-27T11:26:04.204Z,8.03
2019-03-27T11:28:33.919Z,7.80
2019-03-27T11:31:03.728Z,8.67
2019-03-27T11:33:36.695Z,8.50
2019-03-27T11:36:06.508Z,8.50
2019-03-27T11:38:37.724Z,8.60
2019-03-27T11:41:07.772Z,8.67
2019-03-27T11:43:37.574Z,9.10
2019-03-27T11:46:07.286Z,8.20
2019-03-27T11:48:37.168Z,9.27
2019-03-27T11:51:09.835Z,8.50
2019-03-27T11:53:39.563Z,8.33
2019-03-27T11:56:09.342Z,9.07
2019-03-27T11:58:39.154Z,9.83
2019-03-27T12:01:08.959Z,9.37
2019-03-27T12:03:38.749Z,10.60
2019-03-27T12:06:08.558Z,10.60
2019-03-27T12:08:38.362Z,9.37
2019-03-27T12:11:08.129Z,10.30
2019-03-27T12:13:37.955Z,10.63
2019-03-27T12:16:07.856Z,9.57
2019-03-27T12:18:37.578Z,8.83
2019-03-27T12:21:07.309Z,8.53
2019-03-27T12:23:37.113Z,8.30
2019-03-27T12:26:06.898Z,8.57
2019-03-27T12:28:36.692Z,9.30
2019-03-27T12:31:07.425Z,8.87
2019-03-27T12:33:37.207Z,8.20
2019-03-27T12:36:07.001Z,9.60
2019-03-27T12:38:36.794Z,7.50
2019-03-27T12:41:06.578Z,9.30
2019-03-27T12:43:36.381Z,7.97
2019-03-27T12:46:06.174Z,7.70
2019-03-27T12:48:35.968Z,7.50
2019-03-27T12:51:12.585Z,9.40
2019-03-27T12:53:37.154Z,6.40
2019-03-27T12:56:06.988Z,6.73
2019-03-27T12:58:36.795Z,7.80
2019-03-27T13:01:07.963Z,7.00
2019-03-27T13:03:37.816Z,6.73
2019-03-27T13:06:07.539Z,7.40
2019-03-27T13:08:37.258Z,7.53
2019-03-27T13:11:07.068Z,7.73
2019-03-27T13:13:36.872Z,7.63
2019-03-27T13:16:06.673Z,8.20
2019-03-27T13:18:36.482Z,8.53
2019-03-27T13:21:06.265Z,7.70
2019-03-27T13:23:36.001Z,7.40
2019-03-27T13:26:05.793Z,6.43
2019-03-27T13:28:48.251Z,7.33
2019-03-27T13:31:07.114Z,6.47
2019-03-27T13:33:36.897Z,7.60
2019-03-27T13:36:08.097Z,7.80
2019-03-27T13:38:37.902Z,6.93
2019-03-27T13:41:07.660Z,6.07
2019-03-27T13:43:37.367Z,5.83
2019-03-27T13:46:07.150Z,5.97
2019-03-27T13:48:36.942Z,6.63
2019-03-27T13:51:06.709Z,7.40
2019-03-27T13:53:36.615Z,6.10
2019-03-27T13:56:06.375Z,5.90
2019-03-27T13:58:36.184Z,6.40
2019-03-27T14:01:08.798Z,6.30
2019-03-27T14:03:37.483Z,5.50
2019-03-27T14:06:07.306Z,6.70
2019-03-27T14:08:37.194Z,6.03
2019-03-27T14:11:06.921Z,5.57
2019-03-27T14:13:36.720Z,6.07
2019-03-27T14:16:06.535Z,5.17
2019-03-27T14:18:36.250Z,6.63
2019-03-27T14:21:06.049Z,5.60
2019-03-27T14:23:35.760Z,6.00
2019-03-27T14:26:05.610Z,5.40
2019-03-27T14:28:35.432Z,5.73
2019-03-27T14:31:05.249Z,5.80
2019-03-27T14:33:35.038Z,6.07
2019-03-27T14:36:04.772Z,5.20
2019-03-27T14:38:34.585Z,4.77
2019-03-27T14:41:04.392Z,6.10
2019-03-27T14:43:34.203Z,5.50
2019-03-27T14:46:04.002Z,5.83
2019-03-27T14:48:33.749Z,6.47
2019-03-27T14:51:03.470Z,5.60
2019-03-27T14:53:33.253Z,5.97
2019-03-27T14:56:03.148Z,5.40
2019-03-27T14:58:32.854Z,4.63
2019-03-27T15:01:02.677Z,5.07
2019-03-27T15:03:32.490Z,5.70
2019-03-27T15:06:02.267Z,6.63
2019-03-27T15:08:32.068Z,5.73
2019-03-27T15:11:01.799Z,5.53
2019-03-27T15:13:31.567Z,5.93
2019-03-27T15:16:01.361Z,5.60
2019-03-27T15:18:31.135Z,4.60
2019-03-27T15:21:00.953Z,4.80
2019-03-27T15:23:30.726Z,4.60
2019-03-27T15:26:00.536Z,5.90
2019-03-27T15:28:30.429Z,5.13
2019-03-27T15:31:00.159Z,5.10
2019-03-27T15:33:29.963Z,4.90
2019-03-27T15:35:59.785Z,4.20
2019-03-27T15:38:29.552Z,4.67
2019-03-27T15:40:59.341Z,4.60
2019-03-27T15:43:29.117Z,3.70
2019-03-27T15:45:58.969Z,3.83
2019-03-27T15:48:28.794Z,4.07
2019-03-27T15:50:59.032Z,4.07
2019-03-27T15:53:28.995Z,3.70
2019-03-27T15:55:58.809Z,3.73
2019-03-27T15:58:28.612Z,3.97
2019-03-27T16:00:58.458Z,4.00
2019-03-27T16:03:28.261Z,4.00
2019-03-27T16:05:58.043Z,3.33
2019-03-27T16:08:28.865Z,3.80
2019-03-27T16:10:58.949Z,3.50
2019-03-27T16:13:28.928Z,3.60
2019-03-27T16:15:58.933Z,3.73
2019-03-27T16:18:28.929Z,3.53
2019-03-27T16:21:01.980Z,3.57
2019-03-27T16:23:32.401Z,4.07
2019-03-27T16:26:02.576Z,3.83
2019-03-27T16:28:32.604Z,3.60
2019-03-27T16:31:02.649Z,3.70
2019-03-27T16:33:32.694Z,4.00
2019-03-27T16:36:03.034Z,4.53
2019-03-27T16:38:33.076Z,3.70
2019-03-27T16:41:03.387Z,4.20
2019-03-27T16:43:33.450Z,3.70
2019-03-27T16:46:03.583Z,3.20
2019-03-27T16:48:33.549Z,2.80
2019-03-27T16:51:03.382Z,3.37
2019-03-27T16:53:33.171Z,3.10
2019-03-27T16:56:03.017Z,3.50
2019-03-27T16:58:33.121Z,2.80
2019-03-27T17:01:02.895Z,2.60
2019-03-27T17:03:32.733Z,2.83
2019-03-27T17:06:02.531Z,3.10
2019-03-27T17:08:32.368Z,3.37
2019-03-27T17:11:02.181Z,3.00
2019-03-27T17:13:32.086Z,3.73
2019-03-27T17:16:01.926Z,3.13
2019-03-27T17:18:31.769Z,2.90
2019-03-27T17:21:01.569Z,3.23
2019-03-27T17:23:31.402Z,3.20
2019-03-27T17:26:01.315Z,3.20
2019-03-27T17:28:31.195Z,3.27
2019-03-27T17:31:01.109Z,2.90
2019-03-27T17:33:30.956Z,2.63
2019-03-27T17:36:01.073Z,3.00
2019-03-27T17:38:30.910Z,3.10
2019-03-27T17:41:00.703Z,2.67
2019-03-27T17:43:30.461Z,4.03
2019-03-27T17:46:00.252Z,2.40
2019-03-27T17:48:30.088Z,2.83
2019-03-27T17:50:59.897Z,3.47
2019-03-27T17:53:31.883Z,3.17
2019-03-27T17:56:01.309Z,4.27
2019-03-27T17:58:31.061Z,3.10
2019-03-27T18:01:03.513Z,4.00
2019-03-27T18:03:33.732Z,3.60
2019-03-27T18:06:04.446Z,4.73
2019-03-27T18:08:35.015Z,3.50
2019-03-27T18:11:07.975Z,3.90
2019-03-27T18:13:36.742Z,4.70
2019-03-27T18:16:06.602Z,4.57
2019-03-27T18:18:36.324Z,5.17
2019-03-27T18:21:06.201Z,4.30
2019-03-27T18:23:45.832Z,5.30
2019-03-27T18:26:07.444Z,5.87
2019-03-27T18:28:37.473Z,7.43
2019-03-27T18:31:07.295Z,4.87
2019-03-27T18:33:37.095Z,4.40
2019-03-27T18:36:06.820Z,5.33
2019-03-27T18:38:36.742Z,4.20
2019-03-27T18:41:06.522Z,4.03
2019-03-27T18:43:36.258Z,6.57
2019-03-27T18:46:06.059Z,5.70
2019-03-27T18:48:35.866Z,4.63
2019-03-27T18:51:05.732Z,6.23
2019-03-27T18:53:35.528Z,6.87
2019-03-27T18:56:05.626Z,5.53
2019-03-27T18:58:35.454Z,4.50
2019-03-27T19:01:05.517Z,4.30
2019-03-27T19:03:35.691Z,3.40
2019-03-27T19:06:05.800Z,4.67
2019-03-27T19:08:35.904Z,4.60
2019-03-27T19:11:05.913Z,4.47
2019-03-27T19:13:35.931Z,3.83
2019-03-27T19:16:06.153Z,4.33
2019-03-27T19:18:36.125Z,3.40
2019-03-27T19:21:05.995Z,3.30
2019-03-27T19:23:35.959Z,2.83
2019-03-27T19:26:06.003Z,2.70
2019-03-27T19:28:36.137Z,3.83
2019-03-27T19:31:07.345Z,3.60
2019-03-27T19:33:37.390Z,3.20
2019-03-27T19:36:07.715Z,3.40
2019-03-27T19:38:37.917Z,4.17
2019-03-27T19:41:07.941Z,4.40
2019-03-27T19:43:37.969Z,4.00
2019-03-27T19:46:08.022Z,4.60
2019-03-27T19:48:38.041Z,4.50
2019-03-27T19:51:11.151Z,5.20
2019-03-27T19:53:39.787Z,4.87
2019-03-27T19:56:09.837Z,5.10
2019-03-27T19:58:39.650Z,5.20
2019-03-27T20:01:09.565Z,6.40
2019-03-27T20:03:39.394Z,5.57
2019-03-27T20:06:09.115Z,5.73
2019-03-27T20:08:38.958Z,5.33
2019-03-27T20:11:08.841Z,4.83
2019-03-27T20:13:38.661Z,4.70
2019-03-27T20:16:08.501Z,4.60
2019-03-27T20:18:38.366Z,4.53
2019-03-27T20:21:08.655Z,4.67
2019-03-27T20:23:38.808Z,5.23
2019-03-27T20:26:09.001Z,5.43
2019-03-27T20:28:38.974Z,6.40
2019-03-27T20:31:08.800Z,5.67
2019-03-27T20:33:38.642Z,5.87
2019-03-27T20:36:08.450Z,5.30
2019-03-27T20:38:38.257Z,6.40
2019-03-27T20:41:08.112Z,6.20
2019-03-27T20:43:37.915Z,5.77
2019-03-27T20:46:07.706Z,5.10
2019-03-27T20:48:37.964Z,5.27
2019-03-27T20:51:08.136Z,4.53
2019-03-27T20:53:37.999Z,4.53
2019-03-27T20:56:07.809Z,4.90
2019-03-27T20:58:37.668Z,5.40
2019-03-27T21:01:07.498Z,5.43
2019-03-27T21:03:37.326Z,4.60
2019-03-27T21:06:07.115Z,4.87
2019-03-27T21:08:36.946Z,4.97
2019-03-27T21:11:06.725Z,4.53
2019-03-27T21:13:41.006Z,3.70
2019-03-27T21:16:08.035Z,4.00
2019-03-27T21:18:37.846Z,3.67
2019-03-27T21:21:08.821Z,3.63
2019-03-27T21:23:38.674Z,3.17
2019-03-27T21:26:09.827Z,4.10
2019-03-27T21:28:39.813Z,4.47
2019-03-27T21:31:09.609Z,4.80
2019-03-27T21:33:39.348Z,4.37
2019-03-27T21:36:09.147Z,6.90
2019-03-27T21:38:38.894Z,5.60
2019-03-27T21:41:08.612Z,5.53
2019-03-27T21:43:38.437Z,5.33
2019-03-27T21:46:08.177Z,6.10
2019-03-27T21:48:37.920Z,5.60
2019-03-27T21:51:07.646Z,6.17
2019-03-27T21:53:37.433Z,6.10
2019-03-27T21:56:07.192Z,5.87
2019-03-27T21:58:36.925Z,5.67
2019-03-27T22:01:08.200Z,5.70
2019-03-27T22:03:38.022Z,5.10
2019-03-27T22:06:07.784Z,4.90
2019-03-27T22:08:37.509Z,4.80
2019-03-27T22:11:07.293Z,4.53
2019-03-27T22:13:37.060Z,4.23
2019-03-27T22:16:06.842Z,5.17
2019-03-27T22:18:36.632Z,5.00
2019-03-27T22:21:13.326Z,5.00
2019-03-27T22:23:43.060Z,4.73
2019-03-27T22:26:12.829Z,4.83
2019-03-27T22:28:42.613Z,4.83
2019-03-27T22:31:12.335Z,4.40
2019-03-27T22:33:42.187Z,4.80
2019-03-27T22:36:11.980Z,5.30
2019-03-27T22:38:41.677Z,9.13
2019-03-27T22:41:11.618Z,8.07
2019-03-27T22:43:41.398Z,6.33
2019-03-27T22:46:11.197Z,7.90
2019-03-27T22:48:40.973Z,8.70
2019-03-27T22:51:10.774Z,7.00
2019-03-27T22:53:40.532Z,7.53
2019-03-27T22:56:10.296Z,5.93
2019-03-27T22:58:40.051Z,5.30
2019-03-27T23:01:09.851Z,5.50
2019-03-27T23:03:39.635Z,4.40
2019-03-27T23:06:09.424Z,5.17
2019-03-27T23:08:39.198Z,4.87
2019-03-27T23:11:11.660Z,5.17
2019-03-27T23:13:41.449Z,4.53
2019-03-27T23:16:11.143Z,5.17
2019-03-27T23:18:40.937Z,5.50
2019-03-27T23:21:10.754Z,5.67
2019-03-27T23:23:40.529Z,5.20
2019-03-27T23:26:10.342Z,5.53
2019-03-27T23:28:40.159Z,5.43
2019-03-27T23:31:09.859Z,4.63
2019-03-27T23:33:39.625Z,5.17
2019-03-27T23:36:09.662Z,5.40
2019-03-27T23:38:42.900Z,4.70
2019-03-27T23:41:12.721Z,5.47
2019-03-27T23:43:42.484Z,5.50
2019-03-27T23:46:12.272Z,4.80
2019-03-27T23:48:42.033Z,5.47
2019-03-27T23:51:11.745Z,5.33
2019-03-27T23:53:41.459Z,5.00
2019-03-27T23:56:16.734Z,5.80
2019-03-27T23:58:42.721Z,4.93
